Time;durP1;ratioP1;P1;durP2;ratioP2;P2;SDS_P1;SDS_P2;PMS_P1;PMS_P2;Temp;Humidity;BMP_temperature;BMP_pressure;BME280_temperature;BME280_humidity;BME280_pressure;Samples;Min_cycle;Max_cycle;Signal;HPM_P1;HPM_P2
2021/06/14 00:00:17;;;;;;;8.52;5.75;;;14.80;85.00;;;;;;5051845;28;20045;-58
2021/06/14 00:02:44;;;;;;;12.05;6.25;;;14.80;85.30;;;;;;5033630;28;20515;-57
2021/06/14 00:05:30;;;;;;;12.13;6.45;;;14.90;85.50;;;;;;5038624;28;20398;-57
2021/06/14 00:07:57;;;;;;;12.25;6.28;;;14.90;85.50;;;;;;5048496;28;20037;-57
2021/06/14 00:10:26;;;;;;;11.90;6.30;;;14.90;85.60;;;;;;5025044;28;20494;-57
2021/06/14 00:12:52;;;;;;;15.50;7.07;;;14.90;85.20;;;;;;5046819;28;20460;-56
2021/06/14 00:15:18;;;;;;;13.10;6.55;;;14.90;85.30;;;;;;5044153;28;20103;-56
2021/06/14 00:17:44;;;;;;;14.82;7.10;;;15.00;85.20;;;;;;5045320;28;20115;-51
2021/06/14 00:20:12;;;;;;;12.82;6.60;;;15.00;84.90;;;;;;5047410;28;20037;-55
2021/06/14 00:22:42;;;;;;;11.70;6.18;;;15.00;84.90;;;;;;5033232;28;20068;-54
2021/06/14 00:25:10;;;;;;;12.30;6.32;;;15.00;85.00;;;;;;5049103;28;20061;-55
2021/06/14 00:27:36;;;;;;;11.38;6.40;;;14.90;85.00;;;;;;5066978;28;20413;-53
2021/06/14 00:30:04;;;;;;;10.95;6.60;;;15.00;85.10;;;;;;5048692;28;20048;-54
2021/06/14 00:32:29;;;;;;;10.15;6.30;;;14.90;85.00;;;;;;5039790;28;20409;-55
2021/06/14 00:34:55;;;;;;;12.35;6.18;;;14.90;85.30;;;;;;5051196;28;20052;-55
2021/06/14 00:37:21;;;;;;;10.68;5.90;;;14.90;86.00;;;;;;5046332;28;20049;-53
2021/06/14 00:39:47;;;;;;;9.45;5.93;;;14.90;85.50;;;;;;5043876;28;20041;-54
2021/06/14 00:42:14;;;;;;;11.65;6.97;;;14.80;85.70;;;;;;5049542;28;20037;-54
2021/06/14 00:44:40;;;;;;;12.82;6.05;;;14.80;86.00;;;;;;5066678;28;20045;-54
2021/06/14 00:47:06;;;;;;;14.07;6.70;;;14.70;86.00;;;;;;5052183;28;20102;-54
2021/06/14 00:49:32;;;;;;;13.88;6.32;;;14.70;86.20;;;;;;5053458;28;20044;-55
2021/06/14 00:51:58;;;;;;;14.23;6.78;;;14.70;86.40;;;;;;5052435;28;20041;-54
2021/06/14 00:54:24;;;;;;;13.88;7.10;;;14.70;86.20;;;;;;5031255;28;20144;-56
2021/06/14 00:56:50;;;;;;;12.90;7.03;;;14.70;86.30;;;;;;5045140;28;20529;-55
2021/06/14 00:59:16;;;;;;;14.93;6.93;;;14.70;86.20;;;;;;5036502;28;20049;-57
2021/06/14 01:01:42;;;;;;;10.68;7.00;;;14.70;86.30;;;;;;5056476;28;20052;-55
2021/06/14 01:04:09;;;;;;;15.25;7.53;;;14.70;86.30;;;;;;5063786;28;20124;-55
2021/06/14 01:06:35;;;;;;;14.30;7.50;;;14.60;86.30;;;;;;5043022;28;20037;-55
2021/06/14 01:09:01;;;;;;;12.98;6.45;;;14.60;86.20;;;;;;5054531;28;20102;-55
2021/06/14 01:11:33;;;;;;;14.27;7.15;;;14.60;86.60;;;;;;5018951;28;20448;-55
2021/06/14 01:14:12;;;;;;;12.57;6.97;;;14.60;86.70;;;;;;5055495;28;20055;-55
2021/06/14 01:16:59;;;;;;;12.35;6.72;;;14.60;86.70;;;;;;5052676;28;20048;-55
2021/06/14 01:20:06;;;;;;;14.40;7.22;;;14.60;86.80;;;;;;5053318;28;20037;-56
2021/06/14 01:22:58;;;;;;;14.82;7.40;;;14.50;86.80;;;;;;5040687;28;20687;-53
2021/06/14 01:25:29;;;;;;;17.80;8.15;;;14.50;87.00;;;;;;5054761;28;20402;-56
2021/06/14 01:27:59;;;;;;;15.93;7.50;;;14.50;86.90;;;;;;5054004;28;20038;-55
2021/06/14 01:30:33;;;;;;;16.60;7.32;;;14.50;87.10;;;;;;5067272;28;20447;-56
2021/06/14 01:33:02;;;;;;;14.20;7.18;;;14.50;87.20;;;;;;5064459;28;20037;-55
2021/06/14 01:35:35;;;;;;;15.73;8.27;;;14.40;87.40;;;;;;5053544;28;20131;-53
2021/06/14 01:38:01;;;;;;;15.38;7.85;;;14.40;87.20;;;;;;5059575;28;20519;-55
2021/06/14 01:40:28;;;;;;;14.60;7.88;;;14.40;87.20;;;;;;5060132;28;20059;-55
2021/06/14 01:42:58;;;;;;;15.82;8.50;;;14.40;87.20;;;;;;5059895;28;20099;-56
2021/06/14 01:45:26;;;;;;;15.32;8.50;;;14.40;87.30;;;;;;5057029;28;20101;-56
2021/06/14 01:47:52;;;;;;;15.02;8.45;;;14.40;87.10;;;;;;5050767;28;20041;-57
2021/06/14 01:50:19;;;;;;;13.95;7.97;;;14.50;87.10;;;;;;5056720;28;20068;-56
2021/06/14 01:52:46;;;;;;;17.48;8.95;;;14.40;87.20;;;;;;5057958;28;20332;-56
2021/06/14 01:55:18;;;;;;;15.07;9.48;;;14.40;87.30;;;;;;5055004;28;20136;-56
2021/06/14 01:57:44;;;;;;;13.77;8.10;;;14.40;87.20;;;;;;5053561;28;20489;-55
2021/06/14 02:00:10;;;;;;;15.80;8.60;;;14.30;87.10;;;;;;5054497;28;20417;-55
2021/06/14 02:02:40;;;;;;;15.18;8.43;;;14.30;87.40;;;;;;5056919;28;20048;-56
2021/06/14 02:05:08;;;;;;;17.70;8.20;;;14.30;87.00;;;;;;5063936;28;20045;-57
2021/06/14 02:07:35;;;;;;;14.93;8.48;;;14.30;87.20;;;;;;5053748;28;20087;-56
2021/06/14 02:10:04;;;;;;;16.17;8.48;;;14.30;87.00;;;;;;5056718;28;20041;-56
2021/06/14 02:12:33;;;;;;;15.73;9.13;;;14.30;86.70;;;;;;5038437;28;20040;-56
2021/06/14 02:14:59;;;;;;;15.70;8.55;;;14.30;86.60;;;;;;5051718;28;20041;-57
2021/06/14 02:17:30;;;;;;;17.13;8.55;;;14.30;86.60;;;;;;5033172;28;20128;-56
2021/06/14 02:20:04;;;;;;;14.73;8.75;;;14.30;86.40;;;;;;5045891;28;20045;-57
2021/06/14 02:22:34;;;;;;;15.13;9.13;;;14.30;86.20;;;;;;5055022;28;20041;-56
2021/06/14 02:25:00;;;;;;;15.05;8.55;;;14.30;86.10;;;;;;5053842;28;20551;-57
2021/06/14 02:27:26;;;;;;;15.63;9.38;;;14.30;85.40;;;;;;5054031;28;20067;-56
2021/06/14 02:29:51;;;;;;;18.42;9.13;;;14.30;85.40;;;;;;5048415;28;20080;-57
2021/06/14 02:32:17;;;;;;;13.88;8.43;;;14.30;85.40;;;;;;5055586;28;20029;-56
2021/06/14 02:34:44;;;;;;;14.07;9.25;;;14.20;85.10;;;;;;5049733;28;20379;-57
2021/06/14 02:37:12;;;;;;;15.45;8.75;;;14.20;85.00;;;;;;5048381;28;20041;-56
2021/06/14 02:39:38;;;;;;;16.25;9.07;;;14.20;84.70;;;;;;5065043;28;20061;-56
2021/06/14 02:42:05;;;;;;;16.67;9.82;;;14.20;84.90;;;;;;5066212;28;20068;-57
2021/06/14 02:44:31;;;;;;;13.15;8.90;;;14.20;85.60;;;;;;5063773;28;20508;-54
2021/06/14 02:47:04;;;;;;;16.05;9.25;;;14.20;85.20;;;;;;5056359;28;20037;-53
2021/06/14 02:49:30;;;;;;;13.70;8.85;;;14.10;85.30;;;;;;5052628;28;20554;-54
2021/06/14 02:51:58;;;;;;;14.85;8.50;;;14.10;85.30;;;;;;5051499;28;20040;-54
2021/06/14 02:54:30;;;;;;;16.48;8.48;;;14.10;85.20;;;;;;5056933;28;20443;-55
2021/06/14 02:56:59;;;;;;;13.60;8.15;;;14.10;84.80;;;;;;5057917;28;20033;-53
2021/06/14 02:59:27;;;;;;;17.13;8.98;;;14.10;83.90;;;;;;5043303;28;20078;-55
2021/06/14 03:01:54;;;;;;;17.38;8.88;;;14.00;83.70;;;;;;5051856;28;20405;-54
2021/06/14 03:04:21;;;;;;;17.23;8.85;;;14.10;83.90;;;;;;5063596;28;20099;-54
2021/06/14 03:06:50;;;;;;;14.02;9.18;;;14.00;84.40;;;;;;5081439;28;20043;-54
2021/06/14 03:09:17;;;;;;;17.35;8.50;;;14.00;84.50;;;;;;5061540;28;20040;-54
2021/06/14 03:11:44;;;;;;;18.23;8.88;;;14.00;84.60;;;;;;5065400;28;20472;-54
2021/06/14 03:14:12;;;;;;;17.08;8.65;;;14.00;84.60;;;;;;5067295;28;20489;-55
2021/06/14 03:16:38;;;;;;;15.50;8.48;;;14.00;83.50;;;;;;5043685;28;20041;-54
2021/06/14 03:19:05;;;;;;;21.25;8.60;;;14.00;82.50;;;;;;5043537;28;20038;-54
2021/06/14 03:21:33;;;;;;;14.57;8.07;;;14.00;82.00;;;;;;5050470;28;20126;-54
2021/06/14 03:23:59;;;;;;;15.75;8.32;;;14.10;81.70;;;;;;5054288;28;20041;-55
2021/06/14 03:26:30;;;;;;;16.05;8.32;;;14.10;81.90;;;;;;5058067;28;20044;-54
2021/06/14 03:28:57;;;;;;;18.50;8.48;;;14.10;82.20;;;;;;5057332;28;20119;-55
2021/06/14 03:31:26;;;;;;;16.50;8.45;;;14.10;82.40;;;;;;5062025;28;20049;-56
2021/06/14 03:33:52;;;;;;;13.35;8.10;;;14.10;82.50;;;;;;5042426;28;20037;-58
2021/06/14 03:36:20;;;;;;;13.27;8.45;;;14.10;82.80;;;;;;5051135;28;20122;-55
2021/06/14 03:38:52;;;;;;;14.82;7.68;;;14.10;82.80;;;;;;5053308;28;20434;-54
2021/06/14 03:41:19;;;;;;;13.55;8.38;;;14.10;83.20;;;;;;5036886;28;20051;-55
2021/06/14 03:43:45;;;;;;;12.50;8.23;;;14.00;83.20;;;;;;5053881;28;20033;-53
2021/06/14 03:46:12;;;;;;;14.93;8.60;;;14.00;83.50;;;;;;5043378;28;20048;-54
2021/06/14 03:48:38;;;;;;;16.63;8.65;;;14.00;83.70;;;;;;5053264;28;20442;-56
2021/06/14 03:51:05;;;;;;;14.40;8.45;;;14.00;83.60;;;;;;5053134;28;20520;-56
2021/06/14 03:53:32;;;;;;;14.52;7.72;;;14.00;83.60;;;;;;5053628;28;20048;-56
2021/06/14 03:56:04;;;;;;;14.13;7.88;;;14.00;83.60;;;;;;5064120;28;20079;-56
2021/06/14 03:58:31;;;;;;;18.52;8.90;;;14.00;83.20;;;;;;5052062;28;20048;-57
2021/06/14 04:00:58;;;;;;;14.77;8.23;;;14.10;82.30;;;;;;5051978;28;20045;-56
2021/06/14 04:03:28;;;;;;;12.80;8.02;;;14.00;81.40;;;;;;5069514;28;20125;-56
2021/06/14 04:05:59;;;;;;;14.25;7.47;;;14.10;80.90;;;;;;5054496;28;20123;-56
2021/06/14 04:08:25;;;;;;;13.38;8.07;;;14.20;80.50;;;;;;5052021;28;20037;-57
2021/06/14 04:10:50;;;;;;;14.88;8.35;;;14.20;80.60;;;;;;5053908;28;20041;-57
2021/06/14 04:13:16;;;;;;;13.90;7.40;;;14.30;80.10;;;;;;5039540;28;20116;-56
2021/06/14 04:15:43;;;;;;;17.65;8.40;;;14.30;79.70;;;;;;5051277;28;20041;-57
2021/06/14 04:18:09;;;;;;;19.20;9.07;;;14.40;79.40;;;;;;5064911;28;20124;-56
2021/06/14 04:20:35;;;;;;;12.90;8.18;;;14.40;79.40;;;;;;5044220;28;20176;-55
2021/06/14 04:23:01;;;;;;;13.85;8.30;;;14.40;79.40;;;;;;5054090;28;20047;-56
2021/06/14 04:25:27;;;;;;;16.48;8.15;;;14.40;79.50;;;;;;5045133;28;20041;-57
2021/06/14 04:27:52;;;;;;;13.75;8.32;;;14.40;79.50;;;;;;5052227;28;20033;-56
2021/06/14 04:30:19;;;;;;;13.57;8.38;;;14.50;79.30;;;;;;5048782;28;20061;-55
2021/06/14 04:32:48;;;;;;;14.50;8.13;;;14.50;79.10;;;;;;5024872;28;20083;-56
2021/06/14 04:35:14;;;;;;;15.85;8.57;;;14.60;78.80;;;;;;5053866;28;20519;-57
2021/06/14 04:37:40;;;;;;;14.85;8.57;;;14.60;78.80;;;;;;5052962;28;20045;-56
2021/06/14 04:40:07;;;;;;;17.85;8.75;;;14.60;78.90;;;;;;5053766;28;20049;-56
2021/06/14 04:42:33;;;;;;;14.65;8.63;;;14.70;78.90;;;;;;5051335;28;20048;-57
2021/06/14 04:44:58;;;;;;;15.68;8.93;;;14.70;78.80;;;;;;5051246;28;20090;-56
2021/06/14 04:47:25;;;;;;;15.40;8.65;;;14.70;78.70;;;;;;5051996;28;20311;-56
2021/06/14 04:49:51;;;;;;;14.68;8.82;;;14.70;78.80;;;;;;5030573;28;20520;-57
2021/06/14 04:52:17;;;;;;;14.50;7.97;;;14.80;78.70;;;;;;5042501;28;20120;-56
2021/06/14 04:54:43;;;;;;;16.08;8.98;;;14.80;78.50;;;;;;5051084;28;20055;-56
2021/06/14 04:57:09;;;;;;;15.30;8.98;;;14.90;78.60;;;;;;5054308;28;20044;-56
2021/06/14 04:59:35;;;;;;;16.48;9.07;;;15.00;78.50;;;;;;5058226;28;20041;-56
2021/06/14 05:02:02;;;;;;;13.68;8.70;;;15.10;77.90;;;;;;5056618;28;20137;-56
2021/06/14 05:04:27;;;;;;;11.55;8.07;;;15.30;77.80;;;;;;5054219;28;20565;-57
2021/06/14 05:06:54;;;;;;;17.65;9.50;;;15.60;77.10;;;;;;5056901;28;20502;-56
2021/06/14 05:09:20;;;;;;;14.35;8.65;;;15.90;76.50;;;;;;5056175;28;20139;-56
2021/06/14 05:11:47;;;;;;;14.10;7.88;;;16.20;75.70;;;;;;5045768;28;20120;-55
2021/06/14 05:14:17;;;;;;;16.65;8.52;;;16.50;75.20;;;;;;5056662;28;20046;-57
2021/06/14 05:16:44;;;;;;;13.48;8.85;;;16.80;73.90;;;;;;5039075;28;20423;-56
2021/06/14 05:19:11;;;;;;;15.18;8.52;;;17.00;73.10;;;;;;5057369;28;20049;-57
2021/06/14 05:21:37;;;;;;;15.13;7.90;;;17.30;73.00;;;;;;5046350;28;20094;-57
2021/06/14 05:24:03;;;;;;;14.15;7.63;;;17.60;71.90;;;;;;5044394;28;20108;-57
2021/06/14 05:26:29;;;;;;;13.50;7.53;;;17.80;71.10;;;;;;5032816;28;20045;-56
2021/06/14 05:28:55;;;;;;;16.15;7.65;;;18.10;70.40;;;;;;5046673;28;20049;-57
2021/06/14 05:31:21;;;;;;;14.23;8.32;;;18.30;68.70;;;;;;5052440;28;20037;-56
2021/06/14 05:33:46;;;;;;;14.95;8.00;;;18.50;68.00;;;;;;5046974;28;20049;-57
2021/06/14 05:36:12;;;;;;;14.35;7.57;;;18.70;67.20;;;;;;5043830;28;20405;-55
2021/06/14 05:38:38;;;;;;;12.52;7.88;;;18.80;66.70;;;;;;5043184;28;20041;-57
2021/06/14 05:41:05;;;;;;;13.73;7.85;;;19.00;65.10;;;;;;5056504;28;20464;-56
2021/06/14 05:43:34;;;;;;;13.40;8.10;;;19.10;65.00;;;;;;5043291;28;20048;-57
2021/06/14 05:46:00;;;;;;;14.77;8.25;;;19.20;65.10;;;;;;5040560;28;20033;-57
2021/06/14 05:48:26;;;;;;;13.93;8.02;;;19.30;65.10;;;;;;5046208;28;20094;-58
2021/06/14 05:50:52;;;;;;;14.43;8.15;;;19.40;64.50;;;;;;5047883;28;20040;-56
2021/06/14 05:53:21;;;;;;;14.75;8.18;;;19.60;63.50;;;;;;5054752;28;20041;-56
2021/06/14 05:55:48;;;;;;;17.35;7.88;;;20.00;63.50;;;;;;5052351;28;20033;-55
2021/06/14 05:58:15;;;;;;;14.43;8.15;;;20.40;62.00;;;;;;5048812;28;20129;-56
2021/06/14 06:00:41;;;;;;;13.65;7.90;;;20.50;60.40;;;;;;5055762;28;20052;-56
2021/06/14 06:03:07;;;;;;;14.68;8.32;;;20.40;60.40;;;;;;5052586;28;20486;-56
2021/06/14 06:05:34;;;;;;;14.57;8.05;;;20.10;61.50;;;;;;5050362;28;20048;-56
2021/06/14 06:08:02;;;;;;;15.60;8.18;;;20.00;62.80;;;;;;5044559;28;20116;-56
2021/06/14 06:10:30;;;;;;;11.90;7.32;;;19.90;62.40;;;;;;5036903;28;20045;-56
2021/06/14 06:12:57;;;;;;;13.60;8.27;;;19.70;63.20;;;;;;5051464;28;20041;-56
2021/06/14 06:15:22;;;;;;;14.18;8.15;;;19.60;64.10;;;;;;5052685;28;20095;-56
2021/06/14 06:17:49;;;;;;;12.65;7.45;;;19.50;64.40;;;;;;5042136;28;20052;-56
2021/06/14 06:20:15;;;;;;;11.27;6.85;;;19.50;64.70;;;;;;5051499;28;20159;-55
2021/06/14 06:22:42;;;;;;;13.45;7.75;;;19.40;65.10;;;;;;5046459;28;20409;-55
2021/06/14 06:25:17;;;;;;;13.50;7.45;;;19.40;64.70;;;;;;5052308;28;20059;-53
2021/06/14 06:27:43;;;;;;;12.57;7.45;;;19.30;64.70;;;;;;5055094;28;20045;-53
2021/06/14 06:30:10;;;;;;;12.80;7.35;;;19.30;64.90;;;;;;5051778;28;20048;-55
2021/06/14 06:32:38;;;;;;;16.55;7.57;;;19.30;65.30;;;;;;5056396;28;20052;-53
2021/06/14 06:35:05;;;;;;;12.40;7.90;;;19.30;64.70;;;;;;5042157;28;20418;-56
2021/06/14 06:37:30;;;;;;;13.23;7.55;;;19.40;63.60;;;;;;5042058;28;20054;-55
2021/06/14 06:39:57;;;;;;;14.70;7.28;;;19.40;62.90;;;;;;5037355;28;20168;-54
2021/06/14 06:42:23;;;;;;;13.02;7.50;;;19.40;62.50;;;;;;5039559;28;20084;-55
2021/06/14 06:44:49;;;;;;;13.35;6.63;;;19.30;63.70;;;;;;5049267;28;20049;-55
2021/06/14 06:47:14;;;;;;;12.30;6.60;;;19.30;64.20;;;;;;5040451;28;20441;-55
2021/06/14 06:49:41;;;;;;;15.90;6.93;;;19.30;64.40;;;;;;5042786;28;20095;-54
2021/06/14 06:52:06;;;;;;;14.20;7.13;;;19.30;64.40;;;;;;5040706;28;20049;-54
2021/06/14 06:54:32;;;;;;;14.88;7.68;;;19.40;64.80;;;;;;5038006;28;20557;-56
2021/06/14 06:56:58;;;;;;;14.13;7.07;;;19.50;64.10;;;;;;5033651;28;20044;-54
2021/06/14 06:59:26;;;;;;;15.13;7.05;;;19.50;62.90;;;;;;5062948;28;20148;-54
2021/06/14 07:01:52;;;;;;;17.52;7.60;;;19.60;63.80;;;;;;5042214;28;20036;-54
2021/06/14 07:04:17;;;;;;;9.52;6.50;;;19.70;62.10;;;;;;5050921;28;20555;-56
2021/06/14 07:06:43;;;;;;;11.35;6.20;;;19.90;61.90;;;;;;5051598;28;20044;-56
2021/06/14 07:09:09;;;;;;;9.85;5.82;;;20.10;61.10;;;;;;5050519;28;20072;-56
2021/06/14 07:11:37;;;;;;;11.18;5.97;;;20.20;60.80;;;;;;5062416;28;20045;-57
2021/06/14 07:14:04;;;;;;;19.17;5.93;;;20.40;60.10;;;;;;5044976;28;20041;-55
2021/06/14 07:16:31;;;;;;;11.05;5.47;;;20.60;59.40;;;;;;5035004;28;20045;-57
2021/06/14 07:18:56;;;;;;;11.38;5.20;;;20.80;57.30;;;;;;5050851;28;20037;-56
2021/06/14 07:21:24;;;;;;;9.57;4.90;;;21.00;56.00;;;;;;5049892;28;20197;-57
2021/06/14 07:23:50;;;;;;;11.90;5.32;;;21.10;56.90;;;;;;5066438;28;20044;-57
2021/06/14 07:26:16;;;;;;;8.48;5.00;;;21.30;57.80;;;;;;5050645;28;20082;-57
2021/06/14 07:28:42;;;;;;;14.75;5.57;;;21.40;57.30;;;;;;5045303;28;20116;-57
2021/06/14 07:31:10;;;;;;;7.80;3.95;;;21.50;55.40;;;;;;5045358;28;20123;-57
2021/06/14 07:33:37;;;;;;;8.75;4.15;;;21.70;53.10;;;;;;5049148;28;20040;-57
2021/06/14 07:36:05;;;;;;;10.00;4.22;;;21.70;55.30;;;;;;5040697;28;20049;-57
2021/06/14 07:38:31;;;;;;;10.15;4.55;;;21.90;56.30;;;;;;5035393;28;20037;-54
2021/06/14 07:40:57;;;;;;;12.73;4.35;;;22.00;55.40;;;;;;5038421;28;20037;-54
2021/06/14 07:43:23;;;;;;;13.90;4.70;;;22.20;54.90;;;;;;5034446;28;20087;-55
2021/06/14 07:45:49;;;;;;;7.95;4.45;;;22.30;55.10;;;;;;5043711;28;20413;-55
2021/06/14 07:48:15;;;;;;;10.82;4.90;;;22.40;55.00;;;;;;5048751;28;20045;-57
2021/06/14 07:50:44;;;;;;;9.32;4.65;;;22.40;54.50;;;;;;5048241;28;20045;-54
2021/06/14 07:53:10;;;;;;;10.38;4.80;;;22.50;53.20;;;;;;5047409;28;20037;-57
2021/06/14 07:55:38;;;;;;;11.95;5.07;;;22.60;51.20;;;;;;5043165;28;20096;-52
2021/06/14 07:58:07;;;;;;;10.80;5.07;;;22.60;51.80;;;;;;5039313;28;20045;-55
2021/06/14 08:00:33;;;;;;;11.13;5.70;;;22.60;51.30;;;;;;5039445;28;20033;-54
2021/06/14 08:02:59;;;;;;;10.98;5.13;;;22.60;49.70;;;;;;5040849;28;20467;-53
2021/06/14 08:05:25;;;;;;;9.07;4.97;;;22.70;50.40;;;;;;5045694;28;20124;-51
2021/06/14 08:07:50;;;;;;;13.02;5.25;;;22.70;52.30;;;;;;5047125;28;20037;-55
2021/06/14 08:10:18;;;;;;;8.55;5.05;;;22.80;52.80;;;;;;5049228;28;20099;-54
2021/06/14 08:12:49;;;;;;;10.63;5.10;;;22.80;52.70;;;;;;5042127;28;20045;-55
2021/06/14 08:15:18;;;;;;;10.63;5.38;;;22.90;52.70;;;;;;5039575;28;20045;-55
2021/06/14 08:17:44;;;;;;;13.52;4.78;;;23.00;51.50;;;;;;5044475;28;20037;-57
2021/06/14 08:20:22;;;;;;;10.55;4.50;;;23.10;49.70;;;;;;5046855;28;20040;-56
2021/06/14 08:25:36;;;;;;;8.63;4.45;;;23.10;49.40;;;;;;5039073;28;20040;-55
2021/06/14 08:28:02;;;;;;;11.80;4.53;;;23.20;49.80;;;;;;5040542;28;20059;-56
2021/06/14 08:30:29;;;;;;;11.90;4.95;;;23.20;50.70;;;;;;5051108;28;20033;-56
2021/06/14 08:32:56;;;;;;;11.15;4.70;;;23.40;49.50;;;;;;5040813;28;20135;-56
2021/06/14 08:35:24;;;;;;;9.07;5.22;;;23.40;51.10;;;;;;5043992;28;20048;-56
2021/06/14 08:37:51;;;;;;;13.75;4.70;;;23.50;50.60;;;;;;5038948;28;20040;-56
2021/06/14 08:40:20;;;;;;;12.45;5.70;;;23.50;49.90;;;;;;5040823;28;20501;-57
2021/06/14 08:42:47;;;;;;;11.13;5.60;;;23.60;49.10;;;;;;5035666;28;20080;-57
2021/06/14 08:45:14;;;;;;;10.73;4.93;;;23.70;50.10;;;;;;5020452;28;20076;-56
2021/06/14 08:47:43;;;;;;;12.68;4.88;;;23.60;50.40;;;;;;5045550;28;20033;-57
2021/06/14 08:50:13;;;;;;;10.73;5.35;;;23.70;51.00;;;;;;5034495;28;20048;-54
2021/06/14 08:52:40;;;;;;;10.60;4.90;;;23.80;50.40;;;;;;5036340;28;20040;-54
2021/06/14 08:55:09;;;;;;;14.85;5.68;;;23.90;49.90;;;;;;5042790;28;20095;-55
2021/06/14 08:57:36;;;;;;;12.77;5.95;;;24.00;48.70;;;;;;5024243;28;20033;-53
2021/06/14 09:00:12;;;;;;;12.13;5.28;;;23.90;49.20;;;;;;5029369;28;20516;-57
2021/06/14 09:02:38;;;;;;;12.95;6.10;;;23.90;50.10;;;;;;5040074;28;20052;-56
2021/06/14 09:05:06;;;;;;;10.95;5.57;;;24.00;49.80;;;;;;5062044;28;20597;-55
2021/06/14 09:07:33;;;;;;;9.60;5.13;;;24.00;49.50;;;;;;5037370;28;20041;-57
2021/06/14 09:09:59;;;;;;;12.48;5.05;;;24.10;49.50;;;;;;5037994;28;20072;-56
2021/06/14 09:12:35;;;;;;;12.75;4.90;;;24.20;50.00;;;;;;5034257;28;20072;-56
2021/06/14 09:15:10;;;;;;;12.35;5.70;;;24.20;50.30;;;;;;5042015;28;20122;-56
2021/06/14 09:17:36;;;;;;;10.40;6.20;;;24.20;48.90;;;;;;5041596;28;20063;-54
2021/06/14 09:20:03;;;;;;;13.57;5.18;;;24.20;48.70;;;;;;5039682;28;20142;-57
2021/06/14 09:22:31;;;;;;;10.40;4.63;;;24.20;48.90;;;;;;5047366;28;20198;-57
2021/06/14 09:25:00;;;;;;;11.23;5.07;;;24.30;48.60;;;;;;5048329;28;20033;-57
2021/06/14 09:27:27;;;;;;;9.52;4.78;;;24.30;48.10;;;;;;5039450;28;20037;-56
2021/06/14 09:29:53;;;;;;;10.82;4.40;;;24.40;48.30;;;;;;5043455;28;20050;-54
2021/06/14 09:32:19;;;;;;;10.00;4.28;;;24.40;48.70;;;;;;5045832;28;20047;-57
2021/06/14 09:34:46;;;;;;;8.82;4.15;;;24.60;48.80;;;;;;5038370;28;20053;-57
2021/06/14 09:37:16;;;;;;;9.18;3.97;;;24.60;48.20;;;;;;5037484;28;20136;-56
2021/06/14 09:39:47;;;;;;;12.88;4.75;;;24.60;47.60;;;;;;5037870;28;20041;-57
2021/06/14 09:42:20;;;;;;;11.55;4.25;;;24.70;48.10;;;;;;5035817;28;20170;-55
2021/06/14 09:44:47;;;;;;;13.13;4.68;;;24.80;48.30;;;;;;5038791;28;20048;-55
2021/06/14 09:47:14;;;;;;;11.07;4.95;;;24.80;48.10;;;;;;5042724;28;20500;-55
2021/06/14 09:49:53;;;;;;;11.95;4.57;;;24.80;48.00;;;;;;5043395;28;20041;-55
2021/06/14 09:52:23;;;;;;;10.40;4.50;;;24.90;46.90;;;;;;5045688;28;20037;-55
2021/06/14 09:54:52;;;;;;;23.92;5.30;;;25.00;46.90;;;;;;5037124;28;20072;-55
2021/06/14 09:57:26;;;;;;;9.73;4.40;;;25.10;47.10;;;;;;5043847;28;20045;-57
2021/06/14 09:59:53;;;;;;;10.40;4.78;;;25.10;47.20;;;;;;5052599;28;20041;-56
2021/06/14 10:02:19;;;;;;;9.15;4.95;;;25.10;46.90;;;;;;5052616;28;20115;-57
2021/06/14 10:04:52;;;;;;;12.02;4.75;;;25.20;47.40;;;;;;5050386;28;20037;-57
2021/06/14 10:07:20;;;;;;;11.02;4.75;;;25.20;46.00;;;;;;5047388;28;20041;-57
2021/06/14 10:09:49;;;;;;;18.98;5.10;;;25.30;46.60;;;;;;5040188;28;20037;-56
2021/06/14 10:12:24;;;;;;;9.98;4.40;;;25.30;45.50;;;;;;5045871;28;20049;-57
2021/06/14 10:14:55;;;;;;;7.68;4.50;;;25.30;46.10;;;;;;5044098;28;20041;-57
2021/06/14 10:17:38;;;;;;;9.57;4.80;;;25.30;45.90;;;;;;5047517;28;20049;-57
2021/06/14 10:20:16;;;;;;;13.48;5.22;;;25.50;45.50;;;;;;5049197;28;20033;-57
2021/06/14 10:22:43;;;;;;;7.05;4.13;;;25.60;46.30;;;;;;5042224;28;20066;-55
2021/06/14 10:25:11;;;;;;;9.95;4.75;;;25.60;46.00;;;;;;5040011;28;20037;-57
2021/06/14 10:27:37;;;;;;;10.02;4.65;;;25.60;45.70;;;;;;5046993;28;20037;-57
2021/06/14 10:30:06;;;;;;;14.38;6.07;;;25.70;46.40;;;;;;5044309;28;20119;-57
2021/06/14 10:32:35;;;;;;;10.35;5.72;;;25.70;44.90;;;;;;5044320;28;20044;-57
2021/06/14 10:35:02;;;;;;;10.40;5.57;;;25.80;45.30;;;;;;5039430;28;20053;-57
2021/06/14 10:37:27;;;;;;;9.25;5.03;;;25.80;44.90;;;;;;5043886;28;20037;-57
2021/06/14 10:39:55;;;;;;;8.88;5.50;;;25.80;45.70;;;;;;5039660;28;20049;-57
2021/06/14 10:42:22;;;;;;;9.00;4.63;;;25.80;45.90;;;;;;5038251;28;20155;-57
2021/06/14 10:44:48;;;;;;;12.40;5.78;;;25.90;46.70;;;;;;5040650;28;20128;-57
2021/06/14 10:47:15;;;;;;;13.63;5.38;;;25.90;47.10;;;;;;5044520;28;20096;-54
2021/06/14 10:49:41;;;;;;;10.00;5.57;;;26.00;47.70;;;;;;5050120;28;20519;-54
2021/06/14 10:52:07;;;;;;;12.15;5.82;;;26.10;47.50;;;;;;5045362;28;20478;-57
2021/06/14 10:54:47;;;;;;;11.95;4.93;;;26.20;47.40;;;;;;5041467;28;20049;-55
2021/06/14 10:57:14;;;;;;;10.02;5.40;;;26.20;47.80;;;;;;5029586;28;20061;-57
2021/06/14 10:59:45;;;;;;;13.50;5.53;;;26.30;47.10;;;;;;5038083;28;20452;-57
2021/06/14 11:02:12;;;;;;;12.10;5.22;;;26.30;46.50;;;;;;5039308;28;20045;-57
2021/06/14 11:04:39;;;;;;;9.18;5.47;;;26.30;46.20;;;;;;5042075;28;20041;-56
2021/06/14 11:07:05;;;;;;;13.32;5.57;;;26.30;46.10;;;;;;5038388;28;20509;-57
2021/06/14 11:09:43;;;;;;;12.68;5.32;;;26.30;46.20;;;;;;5052789;28;20049;-57
2021/06/14 11:12:24;;;;;;;10.73;5.22;;;26.30;46.60;;;;;;5062169;28;20033;-56
2021/06/14 11:14:51;;;;;;;13.90;5.22;;;26.40;46.40;;;;;;5058439;28;20039;-54
2021/06/14 11:17:33;;;;;;;9.98;5.40;;;26.40;46.10;;;;;;5043332;28;20040;-56
2021/06/14 11:20:00;;;;;;;10.55;5.43;;;26.30;45.40;;;;;;5051663;28;20045;-57
2021/06/14 11:22:56;;;;;;;9.43;4.95;;;26.40;45.60;;;;;;5027955;28;20075;-57
2021/06/14 11:25:30;;;;;;;9.00;4.80;;;26.50;45.90;;;;;;5029666;28;20505;-57
2021/06/14 11:28:01;;;;;;;10.98;5.15;;;26.50;46.40;;;;;;5037989;28;20034;-58
2021/06/14 11:30:36;;;;;;;11.57;5.72;;;26.60;46.00;;;;;;5045359;28;20095;-58
2021/06/14 11:33:04;;;;;;;9.73;6.07;;;26.70;46.20;;;;;;5040827;28;20041;-57
2021/06/14 11:35:32;;;;;;;11.52;5.43;;;26.70;44.50;;;;;;5045026;28;20049;-57
2021/06/14 11:38:03;;;;;;;9.73;5.20;;;26.70;45.50;;;;;;5043504;28;20040;-53
2021/06/14 11:40:34;;;;;;;11.50;5.30;;;26.70;45.90;;;;;;5047653;28;20040;-57
2021/06/14 11:43:09;;;;;;;11.07;6.07;;;26.70;47.20;;;;;;5051368;28;20311;-56
2021/06/14 11:45:39;;;;;;;13.80;6.00;;;26.70;46.90;;;;;;5045904;28;20288;-53
2021/06/14 11:48:22;;;;;;;11.20;5.22;;;26.60;45.20;;;;;;5047328;28;20060;-57
2021/06/14 11:50:48;;;;;;;10.10;5.47;;;26.70;45.80;;;;;;5045649;28;20098;-56
2021/06/14 11:53:14;;;;;;;10.55;5.03;;;26.80;46.10;;;;;;5046832;28;20052;-57
2021/06/14 11:55:44;;;;;;;8.63;4.82;;;26.90;46.10;;;;;;5035921;28;20445;-57
2021/06/14 11:58:13;;;;;;;10.13;4.70;;;27.00;45.10;;;;;;5041107;28;20037;-56
2021/06/14 12:00:56;;;;;;;15.82;4.90;;;27.00;45.70;;;;;;5044177;28;20133;-56
2021/06/14 12:03:24;;;;;;;12.27;4.75;;;27.10;44.90;;;;;;5053733;28;20076;-57
2021/06/14 12:05:52;;;;;;;11.10;5.53;;;27.00;45.70;;;;;;5042659;28;20162;-57
2021/06/14 12:08:21;;;;;;;12.18;5.07;;;27.10;45.50;;;;;;5046027;28;20041;-57
2021/06/14 12:10:52;;;;;;;9.77;5.20;;;27.10;45.50;;;;;;5036892;28;20071;-58
2021/06/14 12:13:19;;;;;;;7.40;4.40;;;27.20;44.50;;;;;;5052584;28;20033;-57
2021/06/14 12:15:51;;;;;;;10.27;4.45;;;27.20;44.70;;;;;;5046655;28;20048;-56
2021/06/14 12:18:18;;;;;;;13.27;5.70;;;27.20;46.00;;;;;;5048928;28;20116;-56
2021/06/14 12:20:53;;;;;;;12.57;5.50;;;27.30;46.40;;;;;;5037245;28;20052;-53
2021/06/14 12:23:22;;;;;;;15.73;5.15;;;27.30;45.70;;;;;;5051339;28;20052;-54
2021/06/14 12:25:50;;;;;;;11.70;5.47;;;27.30;45.10;;;;;;5039194;28;20037;-54
2021/06/14 12:28:19;;;;;;;11.18;5.50;;;27.20;45.20;;;;;;5048478;28;20097;-54
2021/06/14 12:30:48;;;;;;;8.80;5.60;;;27.30;45.80;;;;;;5040087;28;20049;-55
2021/06/14 12:33:35;;;;;;;12.32;5.70;;;27.40;46.00;;;;;;5039911;28;20044;-55
2021/06/14 12:36:03;;;;;;;13.32;5.80;;;27.40;46.00;;;;;;5041005;28;20045;-56
2021/06/14 12:38:29;;;;;;;12.55;5.78;;;27.40;46.70;;;;;;5055227;28;20048;-54
2021/06/14 12:40:57;;;;;;;12.77;5.95;;;27.40;46.50;;;;;;5040660;28;20041;-53
2021/06/14 12:43:23;;;;;;;12.55;6.22;;;27.30;45.90;;;;;;5035171;28;20037;-54
2021/06/14 12:45:49;;;;;;;10.82;5.43;;;27.30;46.10;;;;;;5042885;28;20033;-57